Madison, North Carolina
Current Conditions -  °F | °C
As of 4:35 AM on Saturday 29 Nov 2014 (Local Time) from KSIF Reporting Station
Clear Clear  
Wind Chill: 24°   Ceiling: Unl
Heat Index: 24°   Visibility: 10mi
Dew Point: 24°   Wind: 0mph
Humidity: 96%   Direction: NA
Pressure: 30.26"   Gusts: NA
Location:  36.39°N, 79.96°W
Report Text: KSIF 290935Z AUTO 00000KT 10SM CLR M04/M05 A3026 RMK AO2 T10421047
Loading
Personal Weather Stations






























Interactive Weather Map New forecast layout! Learn more

10-Day Weather Forecast

Advertisements
Track Severe Weather on mobile